Etusivu
METAR-TAF:

METAR-TAF

Lentoasemat :

Alva Regional Airport

Alva, Oklahoma, Yhdysvallat

Leveyspiiri: 36-46-23N, Pituuspiiri: 098-40-12W, korkeus merenpinnasta: 449 m

Tämänhetkinen sää

Tämä raportti tehtiin 37 minuuttia sitten, kello 21.35 UTC
Tuuli 18 kn etelästä puuskistuen 23 kn:hen
Lämpötila 38°C
Kosteus 29%
Ilmanpaine 1011 hPa
Näkyvyys: 16.1 km
selkeää

METAR: KAVK 242135Z AUTO 18018G23KT 10SM CLR 38/17 A2985 RMK AO2

Aika: 17:12 (22:12 UTC)


TAF: puuttuu

Säähavainnot ja -ennusteet yli 4000 lentoasemalta (METAR- ja TAF-raportit).

Käytössä olevat sääasemat on merkitty karttaan keltaisilla ja punaisilla pisteillä.

Aseta hiiri pisteen päälle nähdäksesi sääaseman nimen.

Klikkaa sitten nähdäksesi säähavainnot ja -ennusteet.

Kartan vaihtaminen: klikkaa mustalla rastilla varustettuja vihreitä pisteitä, niin voit zoomata sisään; viivalla varustettua vihreää pistettä, niin voit zoomata ulos tai vihreitä nuolia, niin pääset viereisille kartoille.


METAR-TAF: